sensor_id;sensor_type;location;lat;lon;timestamp;P1;P2;P0
68841;PMS5003;55849;48.482;2.332;2023-08-31T04:49:41;6.50;4.25;2.00
68841;PMS5003;55849;48.482;2.332;2023-08-31T04:52:43;2.00;1.00;1.00
68841;PMS5003;55849;48.482;2.332;2023-08-31T04:55:44;4.50;2.50;1.00
68841;PMS5003;55849;48.482;2.332;2023-08-31T04:58:46;1.50;1.50;1.00
68841;PMS5003;55849;48.482;2.332;2023-08-31T05:01:47;1.25;1.25;1.00
68841;PMS5003;55849;48.482;2.332;2023-08-31T05:04:50;1.75;1.75;1.75
68841;PMS5003;55849;48.482;2.332;2023-08-31T05:07:52;5.00;2.00;1.00
68841;PMS5003;55849;48.482;2.332;2023-08-31T05:10:53;2.00;2.00;1.00
68841;PMS5003;55849;48.482;2.332;2023-08-31T05:13:55;3.00;3.00;2.00
68841;PMS5003;55849;48.482;2.332;2023-08-31T05:16:57;1.00;1.00;1.00
68841;PMS5003;55849;48.482;2.332;2023-08-31T05:20:00;3.25;3.25;1.75
68841;PMS5003;55849;48.482;2.332;2023-08-31T05:23:01;1.00;1.00;0.75
68841;PMS5003;55849;48.482;2.332;2023-08-31T05:26:03;3.00;3.00;3.00
68841;PMS5003;55849;48.482;2.332;2023-08-31T05:29:05;4.25;4.00;2.00
68841;PMS5003;55849;48.482;2.332;2023-08-31T05:32:06;4.50;2.00;1.25
68841;PMS5003;55849;48.482;2.332;2023-08-31T05:35:09;4.25;4.25;2.00
68841;PMS5003;55849;48.482;2.332;2023-08-31T05:38:11;7.25;6.00;3.00
68841;PMS5003;55849;48.482;2.332;2023-08-31T05:41:12;3.25;2.00;1.50
68841;PMS5003;55849;48.482;2.332;2023-08-31T05:44:15;7.00;4.00;2.00
68841;PMS5003;55849;48.482;2.332;2023-08-31T05:47:17;1.00;1.00;1.00
68841;PMS5003;55849;48.482;2.332;2023-08-31T05:50:20;7.00;4.25;2.00
68841;PMS5003;55849;48.482;2.332;2023-08-31T05:53:21;3.50;3.50;3.00
68841;PMS5003;55849;48.482;2.332;2023-08-31T05:56:23;0.00;0.00;0.00
68841;PMS5003;55849;48.482;2.332;2023-08-31T05:59:24;2.00;2.00;1.00
68841;PMS5003;55849;48.482;2.332;2023-08-31T06:02:26;6.00;1.25;1.00
68841;PMS5003;55849;48.482;2.332;2023-08-31T06:05:29;4.25;2.50;1.75
68841;PMS5003;55849;48.482;2.332;2023-08-31T06:08:31;5.50;2.00;2.00
68841;PMS5003;55849;48.482;2.332;2023-08-31T06:11:33;2.00;2.00;1.00
68841;PMS5003;55849;48.482;2.332;2023-08-31T06:14:35;5.50;2.50;2.00
68841;PMS5003;55849;48.482;2.332;2023-08-31T06:17:36;1.00;1.00;1.00
68841;PMS5003;55849;48.482;2.332;2023-08-31T06:20:39;6.50;3.00;1.00
68841;PMS5003;55849;48.482;2.332;2023-08-31T06:23:41;4.25;4.25;3.25
68841;PMS5003;55849;48.482;2.332;2023-08-31T06:26:42;2.00;1.50;1.00
68841;PMS5003;55849;48.482;2.332;2023-08-31T06:29:44;4.00;4.00;1.25
68841;PMS5003;55849;48.482;2.332;2023-08-31T06:32:46;1.75;1.75;1.00
68841;PMS5003;55849;48.482;2.332;2023-08-31T06:35:51;1.00;1.00;1.00
68841;PMS5003;55849;48.482;2.332;2023-08-31T06:38:53;4.75;4.00;3.00
68841;PMS5003;55849;48.482;2.332;2023-08-31T06:41:54;5.25;3.00;3.00
68841;PMS5003;55849;48.482;2.332;2023-08-31T06:44:56;3.00;3.00;2.00
68841;PMS5003;55849;48.482;2.332;2023-08-31T06:47:58;4.25;4.00;2.00
68841;PMS5003;55849;48.482;2.332;2023-08-31T06:51:01;7.25;5.75;2.00
68841;PMS5003;55849;48.482;2.332;2023-08-31T06:54:03;4.75;4.75;2.00
68841;PMS5003;55849;48.482;2.332;2023-08-31T06:57:06;7.00;3.25;2.00
68841;PMS5003;55849;48.482;2.332;2023-08-31T07:00:08;3.50;3.50;2.00
68841;PMS5003;55849;48.482;2.332;2023-08-31T07:03:12;4.00;2.50;1.75
68841;PMS5003;55849;48.482;2.332;2023-08-31T07:06:14;6.50;6.00;3.25
68841;PMS5003;55849;48.482;2.332;2023-08-31T07:09:16;5.75;5.00;4.00
68841;PMS5003;55849;48.482;2.332;2023-08-31T07:12:18;7.25;4.50;2.00
68841;PMS5003;55849;48.482;2.332;2023-08-31T07:15:19;4.50;4.50;3.25
68841;PMS5003;55849;48.482;2.332;2023-08-31T07:18:21;5.50;5.50;4.00
68841;PMS5003;55849;48.482;2.332;2023-08-31T07:21:24;6.50;6.50;4.75
68841;PMS5003;55849;48.482;2.332;2023-08-31T07:24:26;5.00;4.00;3.00
68841;PMS5003;55849;48.482;2.332;2023-08-31T07:27:28;7.50;5.50;4.75
68841;PMS5003;55849;48.482;2.332;2023-08-31T07:30:29;5.50;5.50;4.00
68841;PMS5003;55849;48.482;2.332;2023-08-31T07:33:33;5.50;5.50;4.00
68841;PMS5003;55849;48.482;2.332;2023-08-31T07:36:37;6.75;5.00;4.00
68841;PMS5003;55849;48.482;2.332;2023-08-31T07:39:39;5.50;5.25;4.00
68841;PMS5003;55849;48.482;2.332;2023-08-31T07:42:41;6.00;4.50;2.00
68841;PMS5003;55849;48.482;2.332;2023-08-31T07:45:42;4.75;4.75;3.75
68841;PMS5003;55849;48.482;2.332;2023-08-31T07:48:44;4.00;4.00;3.00
68841;PMS5003;55849;48.482;2.332;2023-08-31T07:51:48;6.00;4.25;2.25
68841;PMS5003;55849;48.482;2.332;2023-08-31T07:54:50;5.75;3.75;3.00
68841;PMS5003;55849;48.482;2.332;2023-08-31T07:57:52;2.00;2.00;2.00
68841;PMS5003;55849;48.482;2.332;2023-08-31T08:00:53;3.75;3.75;2.75
68841;PMS5003;55849;48.482;2.332;2023-08-31T08:03:55;3.00;3.00;2.75
68841;PMS5003;55849;48.482;2.332;2023-08-31T08:06:58;3.50;3.00;1.75
68841;PMS5003;55849;48.482;2.332;2023-08-31T08:10:00;0.50;0.50;0.00
68841;PMS5003;55849;48.482;2.332;2023-08-31T08:13:02;4.25;2.50;1.50
68841;PMS5003;55849;48.482;2.332;2023-08-31T08:16:04;4.50;3.25;1.75
68841;PMS5003;55849;48.482;2.332;2023-08-31T08:19:05;3.00;3.00;2.50
68841;PMS5003;55849;48.482;2.332;2023-08-31T08:22:09;5.00;3.50;2.75
68841;PMS5003;55849;48.482;2.332;2023-08-31T08:25:11;4.50;4.00;3.00
68841;PMS5003;55849;48.482;2.332;2023-08-31T08:28:12;5.25;4.00;4.00
68841;PMS5003;55849;48.482;2.332;2023-08-31T08:31:14;6.00;2.50;2.00
68841;PMS5003;55849;48.482;2.332;2023-08-31T08:34:15;4.00;4.00;3.00
68841;PMS5003;55849;48.482;2.332;2023-08-31T08:37:18;4.00;3.00;2.00
68841;PMS5003;55849;48.482;2.332;2023-08-31T08:40:20;5.00;4.00;2.00
68841;PMS5003;55849;48.482;2.332;2023-08-31T08:43:23;5.25;5.25;2.50
68841;PMS5003;55849;48.482;2.332;2023-08-31T08:46:26;3.25;3.25;3.00
68841;PMS5003;55849;48.482;2.332;2023-08-31T08:49:28;4.75;3.00;2.25
68841;PMS5003;55849;48.482;2.332;2023-08-31T08:52:33;3.50;3.50;2.50
68841;PMS5003;55849;48.482;2.332;2023-08-31T08:55:36;5.25;5.25;2.50
68841;PMS5003;55849;48.482;2.332;2023-08-31T08:58:37;4.75;4.25;1.50
68841;PMS5003;55849;48.482;2.332;2023-08-31T09:01:39;4.00;4.00;2.00
68841;PMS5003;55849;48.482;2.332;2023-08-31T09:04:41;4.50;4.50;2.25
68841;PMS5003;55849;48.482;2.332;2023-08-31T09:08:03;5.00;3.75;2.00
68841;PMS5003;55849;48.482;2.332;2023-08-31T09:11:07;3.50;3.50;2.00
68841;PMS5003;55849;48.482;2.332;2023-08-31T09:14:14;7.75;4.50;2.00
68841;PMS5003;55849;48.482;2.332;2023-08-31T09:17:16;4.25;3.25;2.75
68841;PMS5003;55849;48.482;2.332;2023-08-31T09:20:18;7.25;4.50;2.50
68841;PMS5003;55849;48.482;2.332;2023-08-31T09:23:21;6.00;4.00;3.00
68841;PMS5003;55849;48.482;2.332;2023-08-31T09:26:23;7.25;4.25;2.50
68841;PMS5003;55849;48.482;2.332;2023-08-31T09:29:25;2.00;2.00;1.25
68841;PMS5003;55849;48.482;2.332;2023-08-31T09:32:26;3.25;3.00;2.00
68841;PMS5003;55849;48.482;2.332;2023-08-31T09:35:28;3.50;3.00;1.00
68841;PMS5003;55849;48.482;2.332;2023-08-31T09:38:31;4.50;4.50;3.00
68841;PMS5003;55849;48.482;2.332;2023-08-31T09:41:32;5.50;4.00;2.25
68841;PMS5003;55849;48.482;2.332;2023-08-31T09:44:34;4.00;3.00;1.25
68841;PMS5003;55849;48.482;2.332;2023-08-31T09:47:41;2.00;2.00;1.00
68841;PMS5003;55849;48.482;2.332;2023-08-31T09:50:44;3.00;2.50;2.00
68841;PMS5003;55849;48.482;2.332;2023-08-31T09:53:48;2.00;2.00;2.00
68841;PMS5003;55849;48.482;2.332;2023-08-31T09:56:55;3.00;3.00;2.00
68841;PMS5003;55849;48.482;2.332;2023-08-31T09:59:58;1.50;1.50;1.50
68841;PMS5003;55849;48.482;2.332;2023-08-31T10:03:00;3.50;3.50;1.50
68841;PMS5003;55849;48.482;2.332;2023-08-31T10:06:04;2.25;2.25;2.00
68841;PMS5003;55849;48.482;2.332;2023-08-31T10:09:08;4.00;2.75;2.00
68841;PMS5003;55849;48.482;2.332;2023-08-31T10:12:11;1.25;1.25;1.00
68841;PMS5003;55849;48.482;2.332;2023-08-31T10:15:15;3.50;2.50;1.00
68841;PMS5003;55849;48.482;2.332;2023-08-31T10:18:17;3.00;3.00;1.00
68841;PMS5003;55849;48.482;2.332;2023-08-31T10:21:18;4.50;3.00;2.00
68841;PMS5003;55849;48.482;2.332;2023-08-31T10:24:33;9.75;2.25;1.00
68841;PMS5003;55849;48.482;2.332;2023-08-31T10:27:58;2.25;2.25;1.00
68841;PMS5003;55849;48.482;2.332;2023-08-31T10:31:00;3.00;2.00;1.50
68841;PMS5003;55849;48.482;2.332;2023-08-31T10:34:03;2.50;1.00;0.00
68841;PMS5003;55849;48.482;2.332;2023-08-31T10:37:19;2.00;2.00;1.00
68841;PMS5003;55849;48.482;2.332;2023-08-31T10:40:22;2.25;2.25;1.50
68841;PMS5003;55849;48.482;2.332;2023-08-31T10:43:25;2.00;2.00;1.75
68841;PMS5003;55849;48.482;2.332;2023-08-31T10:46:27;3.75;2.25;1.00
68841;PMS5003;55849;48.482;2.332;2023-08-31T10:49:30;1.25;1.00;1.00
68841;PMS5003;55849;48.482;2.332;2023-08-31T10:52:33;2.50;2.00;1.00
68841;PMS5003;55849;48.482;2.332;2023-08-31T10:55:52;2.00;2.00;1.00
68841;PMS5003;55849;48.482;2.332;2023-08-31T10:58:55;1.25;1.25;1.00
68841;PMS5003;55849;48.482;2.332;2023-08-31T11:01:59;5.00;3.25;1.00
68841;PMS5003;55849;48.482;2.332;2023-08-31T11:05:06;2.50;1.00;1.00
68841;PMS5003;55849;48.482;2.332;2023-08-31T11:08:09;4.00;2.25;1.00
68841;PMS5003;55849;48.482;2.332;2023-08-31T11:11:12;2.00;2.00;1.50
68841;PMS5003;55849;48.482;2.332;2023-08-31T11:14:14;2.25;1.00;1.00
68841;PMS5003;55849;48.482;2.332;2023-08-31T11:17:15;1.00;1.00;0.00
68841;PMS5003;55849;48.482;2.332;2023-08-31T11:20:18;2.25;2.25;1.50
68841;PMS5003;55849;48.482;2.332;2023-08-31T11:23:20;1.25;1.25;1.00
68841;PMS5003;55849;48.482;2.332;2023-08-31T11:26:23;0.50;0.50;0.25
68841;PMS5003;55849;48.482;2.332;2023-08-31T11:29:25;2.00;2.00;1.00
68841;PMS5003;55849;48.482;2.332;2023-08-31T11:32:28;1.00;1.00;1.00
68841;PMS5003;55849;48.482;2.332;2023-08-31T11:35:31;3.00;3.00;1.00
68841;PMS5003;55849;48.482;2.332;2023-08-31T11:38:35;2.50;2.50;2.00
68841;PMS5003;55849;48.482;2.332;2023-08-31T11:41:38;3.50;2.00;1.25
68841;PMS5003;55849;48.482;2.332;2023-08-31T11:44:41;3.50;2.00;1.25
68841;PMS5003;55849;48.482;2.332;2023-08-31T11:47:43;2.25;2.25;2.00
68841;PMS5003;55849;48.482;2.332;2023-08-31T11:50:45;3.75;2.00;1.50
68841;PMS5003;55849;48.482;2.332;2023-08-31T11:53:47;1.00;1.00;1.00
68841;PMS5003;55849;48.482;2.332;2023-08-31T11:56:50;4.50;2.00;1.00
68841;PMS5003;55849;48.482;2.332;2023-08-31T11:59:52;3.25;3.25;2.00
68841;PMS5003;55849;48.482;2.332;2023-08-31T12:02:55;3.00;2.50;2.00
68841;PMS5003;55849;48.482;2.332;2023-08-31T12:05:58;3.50;2.25;2.00
68841;PMS5003;55849;48.482;2.332;2023-08-31T12:09:01;2.00;2.00;1.25
68841;PMS5003;55849;48.482;2.332;2023-08-31T12:12:06;2.25;2.00;1.25
68841;PMS5003;55849;48.482;2.332;2023-08-31T12:15:10;4.25;2.50;2.00
68841;PMS5003;55849;48.482;2.332;2023-08-31T12:18:12;2.50;2.00;1.25
68841;PMS5003;55849;48.482;2.332;2023-08-31T12:21:15;3.00;3.00;1.50
68841;PMS5003;55849;48.482;2.332;2023-08-31T12:24:20;2.25;1.50;1.00
68841;PMS5003;55849;48.482;2.332;2023-08-31T12:27:24;1.75;1.75;1.00
68841;PMS5003;55849;48.482;2.332;2023-08-31T12:30:26;2.75;2.50;1.50
68841;PMS5003;55849;48.482;2.332;2023-08-31T12:33:27;2.25;2.00;2.00
68841;PMS5003;55849;48.482;2.332;2023-08-31T12:36:29;2.50;2.50;1.00
68841;PMS5003;55849;48.482;2.332;2023-08-31T12:39:30;4.00;2.00;1.25
68841;PMS5003;55849;48.482;2.332;2023-08-31T12:42:34;3.25;2.25;1.25
68841;PMS5003;55849;48.482;2.332;2023-08-31T12:45:35;2.00;2.00;1.00
68841;PMS5003;55849;48.482;2.332;2023-08-31T12:48:37;2.00;2.00;1.00
68841;PMS5003;55849;48.482;2.332;2023-08-31T12:51:39;2.25;2.00;1.00
68841;PMS5003;55849;48.482;2.332;2023-08-31T12:54:40;4.00;4.00;2.00
68841;PMS5003;55849;48.482;2.332;2023-08-31T12:57:43;2.00;2.00;1.75
68841;PMS5003;55849;48.482;2.332;2023-08-31T13:00:45;3.25;2.00;1.00
68841;PMS5003;55849;48.482;2.332;2023-08-31T13:03:49;2.25;2.25;1.50
68841;PMS5003;55849;48.482;2.332;2023-08-31T13:06:50;2.75;2.00;1.00
68841;PMS5003;55849;48.482;2.332;2023-08-31T13:09:52;2.00;2.00;1.75
68841;PMS5003;55849;48.482;2.332;2023-08-31T13:12:55;3.00;1.50;1.25
68841;PMS5003;55849;48.482;2.332;2023-08-31T13:15:56;2.00;2.00;1.25
68841;PMS5003;55849;48.482;2.332;2023-08-31T13:18:58;2.25;1.25;1.00
68841;PMS5003;55849;48.482;2.332;2023-08-31T13:22:00;1.25;1.25;0.75
68841;PMS5003;55849;48.482;2.332;2023-08-31T13:25:01;1.75;1.50;1.00
68841;PMS5003;55849;48.482;2.332;2023-08-31T13:28:06;3.25;1.75;1.00
68841;PMS5003;55849;48.482;2.332;2023-08-31T13:31:07;3.75;1.00;0.00
68841;PMS5003;55849;48.482;2.332;2023-08-31T13:34:09;1.00;1.00;1.00
68841;PMS5003;55849;48.482;2.332;2023-08-31T13:37:11;0.25;0.25;0.00
68841;PMS5003;55849;48.482;2.332;2023-08-31T13:40:13;0.00;0.00;0.00
68841;PMS5003;55849;48.482;2.332;2023-08-31T13:43:16;2.25;1.00;1.00
68841;PMS5003;55849;48.482;2.332;2023-08-31T13:46:18;0.00;0.00;0.00
68841;PMS5003;55849;48.482;2.332;2023-08-31T13:49:19;0.50;0.50;0.00
68841;PMS5003;55849;48.482;2.332;2023-08-31T13:52:21;0.75;0.75;0.00
68841;PMS5003;55849;48.482;2.332;2023-08-31T13:55:23;0.00;0.00;0.00
68841;PMS5003;55849;48.482;2.332;2023-08-31T13:58:26;0.00;0.00;0.00
68841;PMS5003;55849;48.482;2.332;2023-08-31T14:01:28;1.00;1.00;0.00
68841;PMS5003;55849;48.482;2.332;2023-08-31T14:04:30;0.00;0.00;0.00
68841;PMS5003;55849;48.482;2.332;2023-08-31T14:07:31;0.75;0.00;0.00
68841;PMS5003;55849;48.482;2.332;2023-08-31T14:10:33;0.00;0.00;0.00
68841;PMS5003;55849;48.482;2.332;2023-08-31T14:13:36;0.00;0.00;0.00
68841;PMS5003;55849;48.482;2.332;2023-08-31T14:16:38;0.00;0.00;0.00
68841;PMS5003;55849;48.482;2.332;2023-08-31T14:19:40;1.50;1.00;0.00
68841;PMS5003;55849;48.482;2.332;2023-08-31T14:22:41;3.00;1.25;0.00
68841;PMS5003;55849;48.482;2.332;2023-08-31T14:25:45;1.00;1.00;1.00
68841;PMS5003;55849;48.482;2.332;2023-08-31T14:28:48;0.00;0.00;0.00
68841;PMS5003;55849;48.482;2.332;2023-08-31T14:31:49;0.00;0.00;0.00
68841;PMS5003;55849;48.482;2.332;2023-08-31T14:34:53;0.00;0.00;0.00
68841;PMS5003;55849;48.482;2.332;2023-08-31T14:37:56;1.00;1.00;0.00
68841;PMS5003;55849;48.482;2.332;2023-08-31T14:40:58;0.00;0.00;0.00
68841;PMS5003;55849;48.482;2.332;2023-08-31T14:44:00;1.00;1.00;0.00
68841;PMS5003;55849;48.482;2.332;2023-08-31T14:47:02;2.00;1.00;0.25
68841;PMS5003;55849;48.482;2.332;2023-08-31T14:50:04;1.50;1.00;0.00
68841;PMS5003;55849;48.482;2.332;2023-08-31T14:53:07;2.00;0.00;0.00
68841;PMS5003;55849;48.482;2.332;2023-08-31T14:56:08;1.00;1.00;0.00
68841;PMS5003;55849;48.482;2.332;2023-08-31T14:59:11;0.00;0.00;0.00
68841;PMS5003;55849;48.482;2.332;2023-08-31T15:02:13;1.00;1.00;1.00
68841;PMS5003;55849;48.482;2.332;2023-08-31T15:05:16;1.50;1.50;0.50
68841;PMS5003;55849;48.482;2.332;2023-08-31T15:08:17;2.00;1.00;0.25
68841;PMS5003;55849;48.482;2.332;2023-08-31T15:11:23;2.00;2.00;1.00
68841;PMS5003;55849;48.482;2.332;2023-08-31T15:14:28;2.00;2.00;1.50
68841;PMS5003;55849;48.482;2.332;2023-08-31T15:17:29;1.75;1.75;1.00
68841;PMS5003;55849;48.482;2.332;2023-08-31T15:20:31;3.00;1.00;1.00
68841;PMS5003;55849;48.482;2.332;2023-08-31T15:23:32;1.25;1.25;1.00
68841;PMS5003;55849;48.482;2.332;2023-08-31T15:26:34;3.00;3.00;2.00
68841;PMS5003;55849;48.482;2.332;2023-08-31T15:29:37;2.75;2.75;1.50
68841;PMS5003;55849;48.482;2.332;2023-08-31T15:32:39;3.25;3.00;2.25
68841;PMS5003;55849;48.482;2.332;2023-08-31T15:35:41;2.00;2.00;2.00
68841;PMS5003;55849;48.482;2.332;2023-08-31T15:38:42;4.00;3.00;2.00
68841;PMS5003;55849;48.482;2.332;2023-08-31T15:41:44;2.00;2.00;2.00
68841;PMS5003;55849;48.482;2.332;2023-08-31T15:44:47;3.00;2.25;2.00
68841;PMS5003;55849;48.482;2.332;2023-08-31T15:47:48;4.25;2.75;2.00
68841;PMS5003;55849;48.482;2.332;2023-08-31T15:50:50;4.00;2.50;1.75
68841;PMS5003;55849;48.482;2.332;2023-08-31T15:53:52;3.50;2.00;1.00
68841;PMS5003;55849;48.482;2.332;2023-08-31T15:56:53;3.00;3.00;2.00
68841;PMS5003;55849;48.482;2.332;2023-08-31T15:59:58;3.25;2.00;1.50
68841;PMS5003;55849;48.482;2.332;2023-08-31T16:03:00;2.75;2.75;2.00
68841;PMS5003;55849;48.482;2.332;2023-08-31T16:06:04;4.00;4.00;2.00
68841;PMS5003;55849;48.482;2.332;2023-08-31T16:09:08;4.50;4.50;2.75
68841;PMS5003;55849;48.482;2.332;2023-08-31T16:12:09;2.00;2.00;2.00
68841;PMS5003;55849;48.482;2.332;2023-08-31T16:15:12;5.50;4.50;2.50
68841;PMS5003;55849;48.482;2.332;2023-08-31T16:18:14;2.00;2.00;1.50
68841;PMS5003;55849;48.482;2.332;2023-08-31T16:21:16;4.00;4.00;1.00
68841;PMS5003;55849;48.482;2.332;2023-08-31T16:24:18;4.00;2.50;2.00
68841;PMS5003;55849;48.482;2.332;2023-08-31T16:27:19;3.00;3.00;2.25
68841;PMS5003;55849;48.482;2.332;2023-08-31T16:30:25;4.00;3.00;2.00
68841;PMS5003;55849;48.482;2.332;2023-08-31T16:33:28;5.00;5.00;3.00
68841;PMS5003;55849;48.482;2.332;2023-08-31T16:36:29;5.50;3.25;3.00
68841;PMS5003;55849;48.482;2.332;2023-08-31T16:39:31;2.00;2.00;2.00
68841;PMS5003;55849;48.482;2.332;2023-08-31T16:42:32;2.00;2.00;2.00
68841;PMS5003;55849;48.482;2.332;2023-08-31T16:45:35;5.75;2.00;2.00
68841;PMS5003;55849;48.482;2.332;2023-08-31T16:48:37;4.75;3.50;2.75
68841;PMS5003;55849;48.482;2.332;2023-08-31T16:51:39;3.00;3.00;3.00
68841;PMS5003;55849;48.482;2.332;2023-08-31T16:54:40;6.00;4.00;3.00
68841;PMS5003;55849;48.482;2.332;2023-08-31T16:57:42;4.75;4.00;2.00
68841;PMS5003;55849;48.482;2.332;2023-08-31T17:00:45;3.25;3.25;2.75
68841;PMS5003;55849;48.482;2.332;2023-08-31T17:03:46;5.50;5.50;4.00
68841;PMS5003;55849;48.482;2.332;2023-08-31T17:06:48;3.25;3.25;2.25
68841;PMS5003;55849;48.482;2.332;2023-08-31T17:09:50;5.25;4.25;2.00
68841;PMS5003;55849;48.482;2.332;2023-08-31T17:12:51;3.00;2.25;1.50
68841;PMS5003;55849;48.482;2.332;2023-08-31T17:15:54;3.00;3.00;2.75
68841;PMS5003;55849;48.482;2.332;2023-08-31T17:18:56;3.50;3.50;1.75
68841;PMS5003;55849;48.482;2.332;2023-08-31T17:21:58;3.50;3.50;3.00
68841;PMS5003;55849;48.482;2.332;2023-08-31T17:24:59;1.00;1.00;1.00
68841;PMS5003;55849;48.482;2.332;2023-08-31T17:28:01;2.50;2.25;1.75
68841;PMS5003;55849;48.482;2.332;2023-08-31T17:31:04;1.50;1.50;1.00
68841;PMS5003;55849;48.482;2.332;2023-08-31T17:34:06;2.00;2.00;1.00
68841;PMS5003;55849;48.482;2.332;2023-08-31T17:37:07;3.50;2.50;1.00
68841;PMS5003;55849;48.482;2.332;2023-08-31T17:40:09;3.00;1.75;1.00
68841;PMS5003;55849;48.482;2.332;2023-08-31T17:43:11;2.50;2.50;1.50
68841;PMS5003;55849;48.482;2.332;2023-08-31T17:46:14;2.25;2.00;1.50
68841;PMS5003;55849;48.482;2.332;2023-08-31T17:49:15;3.00;2.00;1.00
68841;PMS5003;55849;48.482;2.332;2023-08-31T17:52:17;2.50;2.50;1.75
68841;PMS5003;55849;48.482;2.332;2023-08-31T17:55:19;3.00;3.00;1.00
68841;PMS5003;55849;48.482;2.332;2023-08-31T17:58:20;1.00;1.00;1.00
68841;PMS5003;55849;48.482;2.332;2023-08-31T18:01:23;0.50;0.50;0.50
68841;PMS5003;55849;48.482;2.332;2023-08-31T18:04:25;2.00;2.00;1.00
68841;PMS5003;55849;48.482;2.332;2023-08-31T18:07:26;2.00;2.00;0.50
68841;PMS5003;55849;48.482;2.332;2023-08-31T18:10:29;1.00;1.00;1.00
68841;PMS5003;55849;48.482;2.332;2023-08-31T18:13:31;2.25;2.25;1.50
68841;PMS5003;55849;48.482;2.332;2023-08-31T18:16:34;1.00;1.00;1.00
68841;PMS5003;55849;48.482;2.332;2023-08-31T18:19:36;1.00;1.00;1.00
68841;PMS5003;55849;48.482;2.332;2023-08-31T18:22:37;1.50;1.00;1.00
68841;PMS5003;55849;48.482;2.332;2023-08-31T18:25:39;1.00;1.00;1.00
68841;PMS5003;55849;48.482;2.332;2023-08-31T18:28:45;2.00;1.25;1.00
68841;PMS5003;55849;48.482;2.332;2023-08-31T18:31:48;1.00;1.00;0.25
68841;PMS5003;55849;48.482;2.332;2023-08-31T18:34:49;1.00;1.00;0.50
68841;PMS5003;55849;48.482;2.332;2023-08-31T18:37:53;2.25;1.25;1.00
68841;PMS5003;55849;48.482;2.332;2023-08-31T18:40:55;2.00;1.25;1.00
68841;PMS5003;55849;48.482;2.332;2023-08-31T18:43:56;1.50;1.50;1.00
68841;PMS5003;55849;48.482;2.332;2023-08-31T18:46:59;1.00;1.00;1.00
68841;PMS5003;55849;48.482;2.332;2023-08-31T18:50:01;2.00;1.25;1.00
68841;PMS5003;55849;48.482;2.332;2023-08-31T18:53:03;3.00;1.00;1.00
68841;PMS5003;55849;48.482;2.332;2023-08-31T18:56:05;4.00;2.00;0.50
68841;PMS5003;55849;48.482;2.332;2023-08-31T18:59:06;1.00;1.00;0.25
68841;PMS5003;55849;48.482;2.332;2023-08-31T19:02:09;2.25;2.00;1.00
68841;PMS5003;55849;48.482;2.332;2023-08-31T19:05:11;2.00;2.00;1.00
68841;PMS5003;55849;48.482;2.332;2023-08-31T19:08:13;1.50;1.50;1.00
68841;PMS5003;55849;48.482;2.332;2023-08-31T19:11:15;1.00;1.00;1.00
68841;PMS5003;55849;48.482;2.332;2023-08-31T19:14:16;2.25;1.75;1.00
68841;PMS5003;55849;48.482;2.332;2023-08-31T19:17:19;1.50;1.50;1.00
68841;PMS5003;55849;48.482;2.332;2023-08-31T19:20:21;2.00;2.00;1.00
68841;PMS5003;55849;48.482;2.332;2023-08-31T19:23:23;1.00;1.00;1.00
68841;PMS5003;55849;48.482;2.332;2023-08-31T19:26:24;2.00;2.00;1.00
68841;PMS5003;55849;48.482;2.332;2023-08-31T19:29:26;2.75;1.00;1.00
68841;PMS5003;55849;48.482;2.332;2023-08-31T19:32:29;1.50;1.50;1.00
68841;PMS5003;55849;48.482;2.332;2023-08-31T19:35:30;1.00;1.00;1.00
68841;PMS5003;55849;48.482;2.332;2023-08-31T19:38:32;3.75;3.00;2.00
68841;PMS5003;55849;48.482;2.332;2023-08-31T19:41:36;3.00;3.00;1.00
68841;PMS5003;55849;48.482;2.332;2023-08-31T19:44:38;2.00;2.00;1.00
68841;PMS5003;55849;48.482;2.332;2023-08-31T19:47:41;2.75;2.00;1.00
68841;PMS5003;55849;48.482;2.332;2023-08-31T19:50:42;2.00;2.00;1.50
68841;PMS5003;55849;48.482;2.332;2023-08-31T19:53:44;2.75;2.75;2.00
68841;PMS5003;55849;48.482;2.332;2023-08-31T19:56:46;5.50;3.75;2.00
68841;PMS5003;55849;48.482;2.332;2023-08-31T19:59:50;5.50;5.25;4.00
68841;PMS5003;55849;48.482;2.332;2023-08-31T20:02:53;9.75;9.75;6.50
68841;PMS5003;55849;48.482;2.332;2023-08-31T20:05:55;4.75;4.75;2.25
68841;PMS5003;55849;48.482;2.332;2023-08-31T20:08:57;1.00;1.00;1.00
68841;PMS5003;55849;48.482;2.332;2023-08-31T20:11:59;1.50;1.00;1.00
68841;PMS5003;55849;48.482;2.332;2023-08-31T20:15:01;0.50;0.50;0.00
68841;PMS5003;55849;48.482;2.332;2023-08-31T20:18:04;4.25;3.00;2.00
68841;PMS5003;55849;48.482;2.332;2023-08-31T20:21:06;3.50;3.00;2.00
68841;PMS5003;55849;48.482;2.332;2023-08-31T20:24:08;1.00;1.00;0.25
68841;PMS5003;55849;48.482;2.332;2023-08-31T20:27:09;1.00;1.00;1.00
68841;PMS5003;55849;48.482;2.332;2023-08-31T20:30:11;1.00;1.00;0.25
68841;PMS5003;55849;48.482;2.332;2023-08-31T20:33:15;3.00;2.00;1.00
68841;PMS5003;55849;48.482;2.332;2023-08-31T20:36:16;1.00;1.00;1.00
68841;PMS5003;55849;48.482;2.332;2023-08-31T20:39:18;2.00;1.00;0.75
68841;PMS5003;55849;48.482;2.332;2023-08-31T20:42:20;2.00;0.75;0.75
68841;PMS5003;55849;48.482;2.332;2023-08-31T20:45:21;3.25;2.00;0.00
68841;PMS5003;55849;48.482;2.332;2023-08-31T20:48:25;0.25;0.25;0.25
68841;PMS5003;55849;48.482;2.332;2023-08-31T20:51:27;1.50;1.50;1.00
68841;PMS5003;55849;48.482;2.332;2023-08-31T20:54:29;1.00;1.00;0.00
68841;PMS5003;55849;48.482;2.332;2023-08-31T20:57:30;1.25;1.25;1.00
68841;PMS5003;55849;48.482;2.332;2023-08-31T21:00:32;1.25;1.25;1.00
68841;PMS5003;55849;48.482;2.332;2023-08-31T21:03:36;0.00;0.00;0.00
68841;PMS5003;55849;48.482;2.332;2023-08-31T21:06:39;1.00;1.00;1.00
68841;PMS5003;55849;48.482;2.332;2023-08-31T21:09:44;0.50;0.50;0.00
68841;PMS5003;55849;48.482;2.332;2023-08-31T21:12:46;1.00;1.00;1.00
68841;PMS5003;55849;48.482;2.332;2023-08-31T21:15:50;2.25;1.75;1.00
68841;PMS5003;55849;48.482;2.332;2023-08-31T21:18:56;0.00;0.00;0.00
68841;PMS5003;55849;48.482;2.332;2023-08-31T21:21:59;0.00;0.00;0.00
68841;PMS5003;55849;48.482;2.332;2023-08-31T21:25:01;2.00;0.50;0.00
68841;PMS5003;55849;48.482;2.332;2023-08-31T21:28:03;1.50;0.00;0.00
68841;PMS5003;55849;48.482;2.332;2023-08-31T21:31:05;1.00;1.00;0.00
68841;PMS5003;55849;48.482;2.332;2023-08-31T21:34:08;1.00;1.00;1.00
68841;PMS5003;55849;48.482;2.332;2023-08-31T21:37:10;2.00;0.00;0.00
68841;PMS5003;55849;48.482;2.332;2023-08-31T21:40:11;0.00;0.00;0.00
